Meteorología y climatología de Navarra
Datos de la estación - Meteo Navarra

Estación de Bera (Larrategaña) GN

Altitud 306 m.


Datos desde el 09/11/2018 hasta el 10/11/2018 en horario solar
Los datos son PROVISIONALES

Anterior Página 1 de 1 Siguiente Descargar: Formato para Excel 2000 o superior   Formato csv   Formato para OpenOffice Calc
Fecha Temperatura Humedad relativa Radiación global Insolación Precipitación Velocidad viento 10 m Velocidad viento 10 m Dirección viento 10 m
ºC % W/m² s l/m² m/s km/h º
09/11/2018 0:00 10.1 94 0.0 0 0.3 2.1 7.7 196
09/11/2018 0:10 9.9 95 0.0 0 0.3 2.6 9.4 201
09/11/2018 0:20 9.7 95 0.0 0 0.2 3.2 11.7 200
09/11/2018 0:30 9.7 95 0.0 0 0.1 3.1 11.3 207
09/11/2018 0:40 9.6 95 0.0 0 0.3 2.7 9.7 198
09/11/2018 0:50 9.6 95 0.0 0 0.2 2.9 10.3 213
09/11/2018 1:00 9.5 95 0.0 0 0.4 2.6 9.3 211
09/11/2018 1:10 9.4 95 0.0 0 0.3 2.2 8.0 211
09/11/2018 1:20 9.3 95 0.0 0 0.3 2.3 8.2 232
09/11/2018 1:30 9.2 95 0.0 0 0.1 2.4 8.5 239
09/11/2018 1:40 9.2 95 0.0 0 0.0 2.4 8.6 235
09/11/2018 1:50 9.3 95 0.0 0 0.0 2.4 8.6 242
09/11/2018 2:00 9.2 95 0.0 0 0.0 2.1 7.7 241
09/11/2018 2:10 9.3 95 0.0 0 0.0 1.4 5.1 207
09/11/2018 2:20 9.4 95 0.0 0 0.1 1.6 5.9 214
09/11/2018 2:30 9.2 95 0.0 0 0.0 1.0 3.6 234
09/11/2018 2:40 9.2 95 0.0 0 0.2 0.9 3.4 209
09/11/2018 2:50 9.2 95 0.0 0 0.1 1.5 5.3 241
09/11/2018 3:00 9.4 95 0.0 0 0.2 1.7 6.2 237
09/11/2018 3:10 9.4 95 0.0 0 0.0 1.1 4.1 217
09/11/2018 3:20 9.4 95 0.0 0 0.0 1.5 5.4 223
09/11/2018 3:30 9.3 95 0.0 0 0.2 3.0 10.8 239
09/11/2018 3:40 9.5 95 0.0 0 0.2 2.1 7.4 266
09/11/2018 3:50 9.4 95 0.0 0 0.1 0.8 2.7 202
09/11/2018 4:00 9.4 95 0.0 0 0.2 1.0 3.4 290
09/11/2018 4:10 9.4 95 0.0 0 0.3 1.0 3.6 189
09/11/2018 4:20 9.5 95 0.0 0 0.2 0.7 2.6 300
09/11/2018 4:30 9.5 95 0.0 0 0.2 1.6 5.9 282
09/11/2018 4:40 9.6 95 0.0 0 0.2 2.3 8.3 297
09/11/2018 4:50 9.4 95 0.0 0 0.1 1.4 5.1 285
09/11/2018 5:00 9.4 95 0.0 0 0.1 1.8 6.4 310
09/11/2018 5:10 9.3 95 0.0 0 0.1 0.8 2.9 287
09/11/2018 5:20 9.4 95 0.0 0 0.0 1.5 5.4 289
09/11/2018 5:30 9.4 95 0.0 0 0.1 1.6 5.8 244
09/11/2018 5:40 9.4 95 0.0 0 0.0 1.2 4.1 229
09/11/2018 5:50 9.4 95 0.0 0 0.0 0.9 3.4 235
09/11/2018 6:00 9.4 95 0.0 0 0.0 1.4 5.1 234
09/11/2018 6:10 9.5 94 0.0 0 0.0 2.0 7.3 247
09/11/2018 6:20 9.5 95 0.0 0 0.0 1.6 5.7 222
09/11/2018 6:30 9.7 89 0.0 0 0.0 2.3 8.4 240
09/11/2018 6:40 9.9 87 0.0 0 0.0 2.8 9.9 245
09/11/2018 6:50 9.9 87 0.0 0 0.0 2.6 9.4 244
09/11/2018 7:00 9.8 87 0.0 0 0.0 3.3 12.0 250
09/11/2018 7:10 9.7 88 0.0 0 0.0 2.5 9.0 251
09/11/2018 7:20 9.8 88 0.0 0 0.0 2.4 8.7 243
09/11/2018 7:30 9.8 86 6.4 0 0.0 2.5 8.9 241
09/11/2018 7:40 9.9 85 26.1 0 0.0 2.4 8.7 243
09/11/2018 7:50 9.9 85 12.1 0 0.0 2.9 10.6 237
09/11/2018 8:00 10.0 85 11.2 0 0.0 3.1 11.0 246
09/11/2018 8:10 9.9 86 15.2 0 0.0 3.5 12.5 245
09/11/2018 8:20 9.9 87 23.6 0 0.0 2.1 7.7 245
09/11/2018 8:30 9.9 87 30.2 0 0.0 3.1 11.2 240
09/11/2018 8:40 9.8 89 41.8 0 0.0 1.8 6.4 236
09/11/2018 8:50 9.8 91 27.5 0 0.0 1.2 4.1 224
09/11/2018 9:00 9.7 92 54.4 0 0.0 1.5 5.4 234
09/11/2018 9:10 9.7 92 69.5 0 0.0 1.2 4.2 225
09/11/2018 9:20 9.9 93 100.7 0 0.0 1.2 4.5 216
09/11/2018 9:30 9.9 91 96.7 0 0.0 2.3 8.3 223
09/11/2018 9:40 10.0 92 107.2 0 0.0 1.9 6.9 213
09/11/2018 9:50 10.0 92 119.6 0 0.0 2.1 7.6 215
09/11/2018 10:00 10.2 92 128.3 0 0.0 2.0 7.2 214
09/11/2018 10:10 10.2 92 124.1 0 0.0 2.2 7.8 218
09/11/2018 10:20 10.2 92 181.0 0 0.0 1.9 7.0 214
09/11/2018 10:30 10.7 92 244.3 298 0.0 1.3 4.8 183
09/11/2018 10:40 11.0 89 432.9 600 0.0 1.6 5.6 219
09/11/2018 10:50 11.6 85 470.5 556 0.0 2.5 8.9 215
09/11/2018 11:00 11.8 83 498.4 570 0.0 2.6 9.4 216
09/11/2018 11:10 12.0 81 530.4 600 0.0 3.1 11.3 218
09/11/2018 11:20 12.2 79 532.0 600 0.0 3.4 12.1 213
09/11/2018 11:30 12.4 75 540.2 600 0.0 3.7 13.3 216
09/11/2018 11:40 12.4 73 424.9 452 0.0 3.8 13.5 213
09/11/2018 11:50 12.3 76 548.6 598 0.0 2.7 9.7 210
09/11/2018 12:00 12.6 74 238.5 174 0.0 2.0 7.3 217
09/11/2018 12:10 13.2 74 582.7 600 0.0 0.8 3.0 151
09/11/2018 12:20 14.1 69 592.6 600 0.0 2.4 8.7 205
09/11/2018 12:30 13.7 68 521.6 600 0.0 2.8 10.2 211
09/11/2018 12:40 13.5 67 420.3 472 0.0 1.8 6.4 199
09/11/2018 12:50 13.5 66 469.7 490 0.0 2.6 9.2 215
09/11/2018 13:00 14.1 66 518.6 600 0.0 2.7 9.8 217
09/11/2018 13:10 14.3 64 542.1 600 0.0 3.4 12.3 219
09/11/2018 13:20 14.2 62 435.1 600 0.0 3.3 11.8 218
09/11/2018 13:30 13.9 63 348.2 516 0.0 3.0 10.8 211
09/11/2018 13:40 13.6 64 270.2 592 0.0 2.8 10.0 213
09/11/2018 13:50 14.1 64 372.9 600 0.0 2.7 9.5 218
09/11/2018 14:00 14.1 62 255.4 600 0.0 2.6 9.4 203
09/11/2018 14:10 14.1 62 266.9 600 0.0 3.5 12.5 188
09/11/2018 14:20 14.2 61 355.9 600 0.0 3.2 11.4 195
09/11/2018 14:30 14.8 60 376.8 600 0.0 2.6 9.2 187
09/11/2018 14:40 15.0 59 321.6 600 0.0 2.8 10.0 196
09/11/2018 14:50 14.6 58 289.5 600 0.0 3.0 10.7 173
09/11/2018 15:00 14.4 58 268.6 600 0.0 3.6 12.9 159
09/11/2018 15:10 14.1 58 209.7 600 0.0 4.2 15.2 168
09/11/2018 15:20 14.3 58 174.3 590 0.0 3.3 12.0 189
09/11/2018 15:30 14.5 57 189.1 600 0.0 4.8 17.1 202
09/11/2018 15:40 14.5 56 145.9 518 0.0 4.8 17.2 198
09/11/2018 15:50 14.2 56 129.5 580 0.0 4.4 15.7 200
09/11/2018 16:00 14.1 56 55.2 126 0.0 5.1 18.3 209
09/11/2018 16:10 13.8 56 84.2 600 0.0 5.4 19.3 209
09/11/2018 16:20 13.7 52 38.1 150 0.0 5.8 20.9 212
09/11/2018 16:30 13.5 50 4.1 0 0.0 5.6 20.3 211
09/11/2018 16:40 13.2 51 0.0 0 0.0 4.7 16.9 206
09/11/2018 16:50 13.0 51 0.0 0 0.0 5.2 18.9 210
09/11/2018 17:00 13.0 50 0.0 0 0.0 5.4 19.5 210
09/11/2018 17:10 12.9 50 0.0 0 0.0 5.0 17.9 209
09/11/2018 17:20 12.7 50 0.0 0 0.0 4.9 17.8 210
09/11/2018 17:30 12.5 51 0.0 0 0.0 4.8 17.2 213
09/11/2018 17:40 12.5 52 0.0 0 0.0 5.5 19.7 202
09/11/2018 17:50 12.6 51 0.0 0 0.0 6.1 22.1 210
09/11/2018 18:00 12.7 52 0.0 0 0.0 6.2 22.2 200
09/11/2018 18:10 12.8 52 0.0 0 0.0 6.3 22.8 202
09/11/2018 18:20 12.9 51 0.0 0 0.0 7.6 27.4 200
09/11/2018 18:30 12.9 52 0.0 0 0.0 7.5 26.9 200
09/11/2018 18:40 12.9 52 0.0 0 0.0 7.7 27.6 198
09/11/2018 18:50 13.0 53 0.0 0 0.0 7.5 27.1 201
09/11/2018 19:00 13.1 53 0.0 0 0.0 6.9 24.7 200
09/11/2018 19:10 13.2 54 0.0 0 0.0 7.5 27.1 199
09/11/2018 19:20 13.2 55 0.0 0 0.0 7.2 25.8 208
09/11/2018 19:30 13.3 55 0.0 0 0.0 7.7 27.7 202
09/11/2018 19:40 13.2 56 0.0 0 0.0 7.5 27.1 209
09/11/2018 19:50 13.1 57 0.0 0 0.0 8.1 29.2 202
09/11/2018 20:00 13.1 57 0.0 0 0.0 7.8 28.1 202
09/11/2018 20:10 13.2 57 0.0 0 0.0 8.7 31.4 205
09/11/2018 20:20 13.1 58 0.0 0 0.0 8.2 29.4 205
09/11/2018 20:30 13.0 59 0.0 0 0.0 7.7 27.7 199
09/11/2018 20:40 13.1 59 0.0 0 0.0 7.6 27.3 200
09/11/2018 20:50 13.1 60 0.0 0 0.0 7.4 26.5 198
09/11/2018 21:00 13.1 60 0.0 0 0.0 6.7 24.0 189
09/11/2018 21:10 13.2 61 0.0 0 0.0 6.7 24.2 187
09/11/2018 21:20 13.2 61 0.0 0 0.0 6.5 23.5 184
09/11/2018 21:30 13.2 62 0.0 0 0.0 6.4 22.9 189
09/11/2018 21:40 13.3 62 0.0 0 0.0 7.3 26.2 197
09/11/2018 21:50 13.4 62 0.0 0 0.0 7.5 26.8 195
09/11/2018 22:00 13.4 63 0.0 0 0.0 7.0 25.1 195
09/11/2018 22:10 13.7 62 0.0 0 0.0 9.5 34.0 212
09/11/2018 22:20 13.7 62 0.0 0 0.0 7.6 27.5 204
09/11/2018 22:30 13.7 62 0.0 0 0.0 9.8 35.4 205
09/11/2018 22:40 13.5 63 0.0 0 0.0 7.3 26.1 210
09/11/2018 22:50 13.2 64 0.0 0 0.0 6.5 23.3 204
09/11/2018 23:00 13.2 64 0.0 0 0.0 7.1 25.5 204
09/11/2018 23:10 13.0 63 0.0 0 0.0 6.9 24.9 201
09/11/2018 23:20 13.1 62 0.0 0 0.0 6.2 22.5 202
09/11/2018 23:30 13.2 59 0.0 0 0.0 7.1 25.5 208
09/11/2018 23:40 13.3 58 0.0 0 0.0 6.1 22.1 198
09/11/2018 23:50 13.2 58 0.0 0 0.0 5.9 21.4 198
Anterior Página 1 de 1 Siguiente

NOTA: Tipo de datos según el color:
   - Valores diarios o 10 minutos correctos
   - Valores diarios calculados a partir de un número de datos 10 minutos menor que 144 y mayor que 120, o de un número de datos semihorarios menor que 48 y mayor que 40 (caso de las estaciones de Riegos de Navarra y del MARM)
   - Valores diez minutos estimados


Contacto        Enlaces        Aviso legal